createdAt,value
2022-10-17T00:00:51.980Z,0.00
2022-10-17T00:01:52.336Z,0.00
2022-10-17T00:02:52.650Z,0.00
2022-10-17T00:03:53.016Z,0.00
2022-10-17T00:04:53.241Z,0.00
2022-10-17T00:05:53.570Z,0.00
2022-10-17T00:06:53.965Z,0.00
2022-10-17T00:07:54.161Z,0.00
2022-10-17T00:08:54.520Z,0.00
2022-10-17T00:09:54.739Z,0.00
2022-10-17T00:10:55.084Z,0.00
2022-10-17T00:11:55.421Z,0.00
2022-10-17T00:12:55.845Z,0.00
2022-10-17T00:13:56.093Z,0.00
2022-10-17T00:14:56.552Z,0.00
2022-10-17T00:15:56.774Z,0.00
2022-10-17T00:16:57.143Z,0.00
2022-10-17T00:17:57.345Z,0.00
2022-10-17T00:18:57.706Z,0.00
2022-10-17T00:19:57.945Z,0.00
2022-10-17T00:20:58.153Z,0.00
2022-10-17T00:21:58.491Z,0.00
2022-10-17T00:23:00.499Z,0.00
2022-10-17T00:23:59.174Z,0.00
2022-10-17T00:24:59.507Z,0.00
2022-10-17T00:26:00.717Z,0.00
2022-10-17T00:27:00.103Z,0.00
2022-10-17T00:28:00.438Z,0.00
2022-10-17T00:29:00.879Z,0.00
2022-10-17T00:30:01.088Z,0.00
2022-10-17T00:31:01.436Z,0.00
2022-10-17T00:32:01.760Z,0.00
2022-10-17T00:33:02.089Z,0.00
2022-10-17T00:34:02.448Z,0.00
2022-10-17T00:35:02.659Z,0.00
2022-10-17T00:36:03.026Z,0.00
2022-10-17T00:37:03.370Z,0.00
2022-10-17T00:38:03.552Z,0.00
2022-10-17T00:39:04.012Z,0.00
2022-10-17T00:40:04.238Z,0.00
2022-10-17T00:41:04.579Z,0.00
2022-10-17T00:42:04.932Z,0.00
2022-10-17T00:43:05.140Z,0.00
2022-10-17T00:44:05.489Z,0.00
2022-10-17T00:45:05.848Z,0.00
2022-10-17T00:46:06.052Z,0.00
2022-10-17T00:47:06.408Z,0.00
2022-10-17T00:48:06.626Z,0.00
2022-10-17T00:49:07.014Z,0.00
2022-10-17T00:50:07.206Z,0.00
2022-10-17T00:51:07.581Z,0.00
2022-10-17T00:52:07.826Z,0.00
2022-10-17T00:53:08.058Z,0.00
2022-10-17T00:54:08.414Z,0.00
2022-10-17T00:55:08.629Z,0.00
2022-10-17T00:56:09.009Z,0.00
2022-10-17T00:57:09.282Z,0.00
2022-10-17T00:58:09.507Z,0.00
2022-10-17T00:59:09.858Z,0.00
2022-10-17T01:00:10.172Z,0.00
2022-10-17T01:01:10.595Z,0.00
2022-10-17T01:02:10.828Z,0.00
2022-10-17T01:03:11.160Z,0.00
2022-10-17T01:04:11.502Z,0.00
2022-10-17T01:05:11.841Z,0.00
2022-10-17T01:06:12.160Z,0.00
2022-10-17T01:07:12.502Z,0.00
2022-10-17T01:08:12.840Z,0.00
2022-10-17T01:09:13.190Z,0.00
2022-10-17T01:10:13.626Z,0.00
2022-10-17T01:11:13.838Z,0.00
2022-10-17T01:12:14.187Z,0.00
2022-10-17T01:13:14.542Z,0.00
2022-10-17T01:14:14.771Z,0.00
2022-10-17T01:15:15.110Z,0.00
2022-10-17T01:16:15.451Z,0.00
2022-10-17T01:17:15.804Z,0.00
2022-10-17T01:18:16.124Z,0.00
2022-10-17T01:19:16.502Z,0.00
2022-10-17T01:20:16.713Z,0.00
2022-10-17T01:21:17.058Z,0.00
2022-10-17T01:22:17.383Z,0.00
2022-10-17T01:23:17.732Z,0.00
2022-10-17T01:24:18.082Z,0.00
2022-10-17T01:25:18.295Z,0.00
2022-10-17T01:26:18.643Z,0.00
2022-10-17T01:27:18.973Z,0.00
2022-10-17T01:28:19.377Z,0.00
2022-10-17T01:29:19.634Z,0.00
2022-10-17T01:30:19.877Z,0.00
2022-10-17T01:31:20.130Z,0.00
2022-10-17T01:32:20.348Z,0.00
2022-10-17T01:33:20.578Z,0.00
2022-10-17T01:34:20.817Z,0.00
2022-10-17T01:35:21.020Z,0.00
2022-10-17T01:36:21.357Z,0.00
2022-10-17T01:37:21.688Z,0.00
2022-10-17T01:38:22.035Z,0.00
2022-10-17T01:39:22.377Z,0.00
2022-10-17T01:40:22.719Z,0.00
2022-10-17T01:41:23.062Z,0.00
2022-10-17T01:42:23.421Z,0.00
2022-10-17T01:43:23.693Z,0.00
2022-10-17T01:44:23.893Z,0.00
2022-10-17T01:45:24.231Z,0.00
2022-10-17T01:46:24.610Z,0.00
2022-10-17T01:47:25.048Z,0.00
2022-10-17T01:48:25.117Z,0.00
2022-10-17T01:49:25.362Z,0.00
2022-10-17T01:50:25.651Z,0.00
2022-10-17T01:51:25.882Z,0.00
2022-10-17T01:52:26.252Z,0.00
2022-10-17T01:53:26.543Z,0.00
2022-10-17T01:54:26.804Z,0.00
2022-10-17T01:55:27.090Z,0.00
2022-10-17T01:56:27.320Z,0.00
2022-10-17T01:57:27.812Z,0.00
2022-10-17T01:58:28.012Z,0.00
2022-10-17T01:59:28.264Z,0.00
2022-10-17T02:00:28.494Z,0.00
2022-10-17T02:01:28.969Z,0.00
2022-10-17T02:02:29.089Z,0.00
2022-10-17T02:03:29.376Z,0.00
2022-10-17T02:04:29.728Z,0.00
2022-10-17T02:05:29.985Z,0.00
2022-10-17T02:06:30.271Z,0.00
2022-10-17T02:07:30.771Z,0.00
2022-10-17T02:08:30.842Z,0.00
2022-10-17T02:09:31.087Z,0.00
2022-10-17T02:10:31.357Z,0.00
2022-10-17T02:11:31.668Z,0.00
2022-10-17T02:12:31.918Z,0.00
2022-10-17T02:13:32.231Z,0.00
2022-10-17T02:14:32.459Z,0.00
2022-10-17T02:15:32.848Z,0.00
2022-10-17T02:16:33.130Z,0.00
2022-10-17T02:17:33.388Z,0.00
2022-10-17T02:18:33.657Z,0.00
2022-10-17T02:19:33.908Z,0.00
2022-10-17T02:20:34.152Z,0.00
2022-10-17T02:21:34.431Z,0.00
2022-10-17T02:22:34.672Z,0.00
2022-10-17T02:23:34.974Z,0.00
2022-10-17T02:24:35.255Z,0.00
2022-10-17T02:25:35.511Z,0.00
2022-10-17T02:26:35.862Z,0.00
2022-10-17T02:27:36.043Z,0.00
2022-10-17T02:28:36.512Z,0.00
2022-10-17T02:29:36.865Z,0.00
2022-10-17T02:30:37.026Z,0.00
2022-10-17T02:31:37.292Z,0.00
2022-10-17T02:32:38.658Z,0.00
2022-10-17T02:33:37.916Z,0.00
2022-10-17T02:34:38.203Z,0.00
2022-10-17T02:35:38.510Z,0.00
2022-10-17T02:36:38.855Z,0.00
2022-10-17T02:37:39.177Z,0.00
2022-10-17T02:38:39.449Z,0.00
2022-10-17T02:39:40.698Z,0.00
2022-10-17T02:40:40.021Z,0.00
2022-10-17T02:41:40.339Z,0.00
2022-10-17T02:42:40.630Z,0.00
2022-10-17T02:43:40.957Z,0.00
2022-10-17T02:44:41.237Z,0.00
2022-10-17T02:45:41.512Z,0.00
2022-10-17T02:46:41.786Z,0.00
2022-10-17T02:47:42.005Z,0.00
2022-10-17T02:48:42.462Z,0.00
2022-10-17T02:49:42.743Z,0.00
2022-10-17T02:50:43.001Z,0.00
2022-10-17T02:51:43.280Z,0.00
2022-10-17T02:52:43.681Z,0.00
2022-10-17T02:53:43.762Z,0.00
2022-10-17T02:54:44.009Z,0.00
2022-10-17T02:55:44.322Z,0.00
2022-10-17T02:56:44.602Z,0.00
2022-10-17T02:57:44.883Z,0.00
2022-10-17T02:58:45.232Z,0.00
2022-10-17T02:59:45.462Z,0.00
2022-10-17T03:00:45.705Z,0.00
2022-10-17T03:01:45.963Z,0.00
2022-10-17T03:02:46.238Z,0.00
2022-10-17T03:03:46.552Z,0.00
2022-10-17T03:04:46.810Z,0.00
2022-10-17T03:05:47.048Z,0.00
2022-10-17T03:06:47.294Z,0.00
2022-10-17T03:07:47.586Z,0.00
2022-10-17T03:08:47.837Z,0.00
2022-10-17T03:09:48.105Z,0.00
2022-10-17T03:10:48.377Z,0.00
2022-10-17T03:11:48.646Z,0.00
2022-10-17T03:12:48.958Z,0.00
2022-10-17T03:13:49.291Z,0.00
2022-10-17T03:14:49.599Z,0.00
2022-10-17T03:15:49.930Z,0.00
2022-10-17T03:16:50.200Z,0.00
2022-10-17T03:17:50.451Z,0.00
2022-10-17T03:18:50.719Z,0.00
2022-10-17T03:19:50.999Z,0.00
2022-10-17T03:20:52.179Z,0.00
2022-10-17T03:21:51.500Z,0.00
2022-10-17T03:22:51.788Z,0.00
2022-10-17T03:23:52.037Z,0.00
2022-10-17T03:24:52.309Z,0.00
2022-10-17T03:25:52.557Z,0.00
2022-10-17T03:26:52.821Z,0.00
2022-10-17T03:27:53.112Z,0.00
2022-10-17T03:28:54.501Z,0.00
2022-10-17T03:29:53.714Z,0.00
2022-10-17T03:30:53.993Z,0.00
2022-10-17T03:31:54.233Z,0.00
2022-10-17T03:32:54.513Z,0.00
2022-10-17T03:33:54.764Z,0.00
2022-10-17T03:34:54.997Z,0.00
2022-10-17T03:35:55.274Z,0.00
2022-10-17T03:36:55.550Z,0.00
2022-10-17T03:37:55.907Z,0.00
2022-10-17T03:38:56.191Z,0.00
2022-10-17T03:39:56.480Z,0.00
2022-10-17T03:40:56.748Z,0.00
2022-10-17T03:41:57.145Z,0.00
2022-10-17T03:42:57.345Z,0.00
2022-10-17T03:43:57.588Z,0.00
2022-10-17T03:44:57.888Z,0.00
2022-10-17T03:45:58.317Z,0.00
2022-10-17T03:46:58.464Z,0.00
2022-10-17T03:47:58.858Z,0.00
2022-10-17T03:48:58.920Z,0.00
2022-10-17T03:49:59.313Z,0.00
2022-10-17T03:50:59.568Z,0.00
2022-10-17T03:51:59.847Z,0.00
2022-10-17T03:53:00.140Z,0.00
2022-10-17T03:54:00.397Z,0.00
2022-10-17T03:55:00.662Z,0.00
2022-10-17T03:56:00.899Z,0.00
2022-10-17T03:57:01.152Z,0.00
2022-10-17T03:58:01.429Z,0.00
2022-10-17T03:59:01.681Z,0.00
2022-10-17T04:00:01.908Z,0.00
2022-10-17T04:01:02.338Z,0.00
2022-10-17T04:02:02.642Z,0.00
2022-10-17T04:03:02.958Z,0.00
2022-10-17T04:04:03.232Z,0.00
2022-10-17T04:05:03.492Z,0.00
2022-10-17T04:06:03.822Z,0.00
2022-10-17T04:07:04.085Z,0.00
2022-10-17T04:08:04.941Z,0.00
2022-10-17T04:09:04.647Z,0.00
2022-10-17T04:10:04.897Z,0.00
2022-10-17T04:11:05.208Z,0.00
2022-10-17T04:12:05.539Z,0.00
2022-10-17T04:13:05.762Z,0.00
2022-10-17T04:14:06.037Z,12.00
2022-10-17T04:15:06.320Z,12.00
2022-10-17T04:16:06.548Z,12.00
2022-10-17T04:17:06.940Z,8.00
2022-10-17T04:18:07.209Z,8.00
2022-10-17T04:19:07.579Z,8.00
2022-10-17T04:20:07.799Z,8.00
2022-10-17T04:21:08.193Z,8.00
2022-10-17T04:22:08.371Z,8.00
2022-10-17T04:23:08.610Z,8.00
2022-10-17T04:24:09.031Z,8.00
2022-10-17T04:25:09.307Z,8.00
2022-10-17T04:26:09.551Z,8.00
2022-10-17T04:27:09.792Z,8.00
2022-10-17T04:28:10.072Z,8.00
2022-10-17T04:29:10.349Z,8.00
2022-10-17T04:30:10.551Z,8.00
2022-10-17T04:31:10.919Z,8.00
2022-10-17T04:32:11.283Z,0.00
2022-10-17T04:33:11.495Z,0.00
2022-10-17T04:34:11.845Z,0.00
2022-10-17T04:35:12.063Z,0.00
2022-10-17T04:36:12.295Z,0.00
2022-10-17T04:37:12.646Z,0.00
2022-10-17T04:38:12.913Z,0.00
2022-10-17T04:40:13.525Z,8.00
2022-10-17T04:41:13.910Z,8.00
2022-10-17T04:42:14.128Z,8.00
2022-10-17T04:43:14.487Z,8.00
2022-10-17T04:44:14.713Z,8.00
2022-10-17T04:45:15.037Z,8.00
2022-10-17T04:46:15.389Z,8.00
2022-10-17T04:47:15.647Z,8.00
2022-10-17T04:48:16.009Z,8.00
2022-10-17T04:49:16.259Z,8.00
2022-10-17T04:50:16.524Z,0.00
2022-10-17T04:51:16.843Z,0.00
2022-10-17T04:52:17.111Z,0.00
2022-10-17T04:53:17.433Z,0.00
2022-10-17T04:54:17.668Z,0.00
2022-10-17T04:55:17.881Z,0.00
2022-10-17T04:56:18.221Z,0.00
2022-10-17T04:57:18.454Z,0.00
2022-10-17T04:58:18.731Z,12.00
2022-10-17T04:59:18.996Z,0.00
2022-10-17T05:00:19.336Z,0.00
2022-10-17T05:01:19.695Z,8.00
2022-10-17T05:02:20.072Z,4.00
2022-10-17T05:03:20.236Z,4.00
2022-10-17T05:04:23.888Z,4.00
2022-10-17T05:05:20.883Z,0.00
2022-10-17T05:06:21.243Z,0.00
2022-10-17T05:07:21.457Z,4.00
2022-10-17T05:08:21.803Z,4.00
2022-10-17T05:09:22.128Z,4.00
2022-10-17T05:10:22.465Z,4.00
2022-10-17T05:11:22.850Z,8.00
2022-10-17T05:12:23.084Z,8.00
2022-10-17T05:13:23.289Z,12.00
2022-10-17T05:14:23.634Z,8.00
2022-10-17T05:15:23.949Z,16.00
2022-10-17T05:16:24.313Z,16.00
2022-10-17T05:17:24.549Z,20.00
2022-10-17T05:18:24.779Z,20.00
2022-10-17T05:19:24.991Z,24.00
2022-10-17T05:20:25.334Z,28.00
2022-10-17T05:21:25.758Z,32.00
2022-10-17T05:22:26.031Z,36.00
2022-10-17T05:23:26.260Z,40.00
2022-10-17T05:24:26.479Z,44.00
2022-10-17T05:25:26.817Z,52.00
2022-10-17T05:26:27.163Z,60.00
2022-10-17T05:27:27.532Z,72.00
2022-10-17T05:28:27.816Z,76.00
2022-10-17T05:29:28.031Z,88.00
2022-10-17T05:30:29.938Z,92.00
2022-10-17T05:31:28.667Z,100.00
2022-10-17T05:32:29.151Z,104.00
2022-10-17T05:33:29.234Z,116.00
2022-10-17T05:34:29.524Z,124.00
2022-10-17T05:35:29.786Z,132.00
2022-10-17T05:36:30.045Z,140.00
2022-10-17T05:37:30.826Z,148.00
2022-10-17T05:38:30.696Z,156.00
2022-10-17T05:39:30.919Z,164.00
2022-10-17T05:40:31.446Z,176.00
2022-10-17T05:41:31.436Z,188.00
2022-10-17T05:42:32.200Z,200.00
2022-10-17T05:43:31.935Z,216.00
2022-10-17T05:44:32.234Z,232.00
2022-10-17T05:45:32.470Z,248.00
2022-10-17T05:46:32.708Z,268.00
2022-10-17T05:47:33.255Z,292.00
2022-10-17T05:48:33.278Z,312.00
2022-10-17T05:49:46.020Z,332.00
2022-10-17T05:50:34.767Z,360.00
2022-10-17T05:51:34.157Z,388.00
2022-10-17T05:52:34.383Z,412.00
2022-10-17T05:53:34.702Z,436.00
2022-10-17T05:54:34.939Z,460.00
2022-10-17T05:55:35.240Z,488.00
2022-10-17T05:56:35.477Z,508.00
2022-10-17T05:57:35.764Z,536.00
2022-10-17T05:58:49.949Z,564.00
2022-10-17T05:59:37.273Z,592.00
2022-10-17T06:00:36.673Z,616.00
2022-10-17T06:01:36.923Z,640.00
2022-10-17T06:02:37.162Z,668.00
2022-10-17T06:03:37.471Z,692.00
2022-10-17T06:04:37.723Z,712.00
2022-10-17T06:05:37.985Z,736.00
2022-10-17T06:06:38.236Z,756.00
2022-10-17T06:07:38.575Z,768.00
2022-10-17T06:08:38.815Z,780.00
2022-10-17T06:09:39.086Z,792.00
2022-10-17T06:10:39.365Z,808.00
2022-10-17T06:11:39.617Z,824.00
2022-10-17T06:12:40.039Z,844.00
2022-10-17T06:13:40.140Z,868.00
2022-10-17T06:14:40.401Z,900.00
2022-10-17T06:15:40.668Z,948.00
2022-10-17T06:16:40.937Z,1004.00
2022-10-17T06:17:41.257Z,1064.00
2022-10-17T06:18:41.753Z,1116.00
2022-10-17T06:19:41.932Z,1140.00
2022-10-17T06:20:45.363Z,1140.00
2022-10-17T06:21:42.558Z,1132.00
2022-10-17T06:22:42.869Z,1124.00
2022-10-17T06:23:43.150Z,1108.00
2022-10-17T06:24:43.482Z,1096.00
2022-10-17T06:25:43.789Z,1084.00
2022-10-17T06:26:44.082Z,1076.00
2022-10-17T06:27:44.399Z,1076.00
2022-10-17T06:28:44.744Z,1080.00
2022-10-17T06:29:45.022Z,1092.00
2022-10-17T06:30:45.353Z,1104.00
2022-10-17T06:31:45.684Z,1120.00
2022-10-17T06:32:46.005Z,1140.00
2022-10-17T06:33:46.243Z,1168.00
2022-10-17T06:34:46.557Z,1196.00
2022-10-17T06:35:46.852Z,1224.00
2022-10-17T06:36:47.204Z,1256.00
2022-10-17T06:37:47.410Z,1284.00
2022-10-17T06:38:47.707Z,1316.00
2022-10-17T06:39:48.024Z,1360.00
2022-10-17T06:40:48.296Z,1396.00
2022-10-17T06:41:48.608Z,1416.00
2022-10-17T06:42:48.946Z,1448.00
2022-10-17T06:43:49.270Z,1520.00
2022-10-17T06:44:49.555Z,1560.00
2022-10-17T06:45:49.857Z,1584.00
2022-10-17T06:46:50.136Z,1636.00
2022-10-17T06:47:50.409Z,1684.00
2022-10-17T06:48:50.699Z,1724.00
2022-10-17T06:49:50.973Z,1736.00
2022-10-17T06:50:51.373Z,1776.00
2022-10-17T06:51:51.479Z,1792.00
2022-10-17T06:52:51.780Z,1816.00
2022-10-17T06:53:52.008Z,1824.00
2022-10-17T06:54:52.345Z,1820.00
2022-10-17T06:55:52.701Z,1804.00
2022-10-17T06:56:52.850Z,1804.00
2022-10-17T06:57:54.081Z,1820.00
2022-10-17T06:58:53.432Z,1848.00
2022-10-17T06:59:53.778Z,1892.00
2022-10-17T07:00:58.623Z,1932.00
2022-10-17T07:01:55.293Z,1948.00
2022-10-17T07:02:54.668Z,1952.00
2022-10-17T07:03:55.150Z,1980.00
2022-10-17T07:04:55.244Z,2012.00
2022-10-17T07:05:55.532Z,2052.00
2022-10-17T07:06:55.856Z,2088.00
2022-10-17T07:07:56.174Z,2112.00
2022-10-17T07:08:56.536Z,2108.00
2022-10-17T07:09:56.712Z,2112.00
2022-10-17T07:10:57.134Z,2124.00
2022-10-17T07:11:57.255Z,2164.00
2022-10-17T07:12:57.535Z,2228.00
2022-10-17T07:13:57.816Z,2312.00
2022-10-17T07:14:58.074Z,2368.00
2022-10-17T07:16:58.618Z,2460.00
2022-10-17T07:17:58.858Z,2448.00
2022-10-17T07:18:59.118Z,2372.00
2022-10-17T07:19:59.394Z,2280.00
2022-10-17T07:20:59.658Z,2192.00
2022-10-17T07:21:59.940Z,2160.00
2022-10-17T07:23:00.223Z,2180.00
2022-10-17T07:24:01.273Z,2240.00
2022-10-17T07:25:00.754Z,2372.00
2022-10-17T07:26:01.006Z,2436.00
2022-10-17T07:27:01.283Z,2508.00
2022-10-17T07:28:01.600Z,2572.00
2022-10-17T07:29:01.996Z,2756.00
2022-10-17T07:30:02.124Z,2788.00
2022-10-17T07:31:02.432Z,2712.00
2022-10-17T07:32:02.725Z,2692.00
2022-10-17T07:33:03.754Z,2688.00
2022-10-17T07:34:03.344Z,2740.00
2022-10-17T07:35:03.605Z,2776.00
2022-10-17T07:36:03.927Z,2784.00
2022-10-17T07:37:04.218Z,2872.00
2022-10-17T07:38:04.467Z,2916.00
2022-10-17T07:39:04.717Z,2924.00
2022-10-17T07:40:05.033Z,2928.00
2022-10-17T07:41:05.178Z,2948.00
2022-10-17T07:42:10.867Z,3028.00
2022-10-17T07:43:08.347Z,3040.00
2022-10-17T07:44:07.631Z,3024.00
2022-10-17T07:45:06.952Z,2968.00
2022-10-17T07:46:07.391Z,3000.00
2022-10-17T07:47:16.360Z,2940.00
2022-10-17T07:48:07.479Z,2876.00
2022-10-17T07:49:07.675Z,2788.00
2022-10-17T07:50:08.027Z,2700.00
2022-10-17T07:51:08.347Z,2652.00
2022-10-17T07:52:08.681Z,2620.00
2022-10-17T07:53:08.988Z,2728.00
2022-10-17T07:54:09.286Z,2764.00
2022-10-17T07:55:09.561Z,2824.00
2022-10-17T07:56:09.809Z,2964.00
2022-10-17T07:57:10.071Z,3040.00
2022-10-17T07:58:10.352Z,3128.00
2022-10-17T07:59:10.651Z,3160.00
2022-10-17T08:00:10.911Z,3244.00
2022-10-17T08:01:14.906Z,3320.00
2022-10-17T08:02:11.464Z,3228.00
2022-10-17T08:03:11.793Z,3308.00
2022-10-17T08:04:12.092Z,3148.00
2022-10-17T08:05:12.344Z,3112.00
2022-10-17T08:06:12.622Z,2996.00
2022-10-17T08:07:21.784Z,3020.00
2022-10-17T08:08:14.178Z,3004.00
2022-10-17T08:09:13.509Z,2792.00
2022-10-17T08:10:13.934Z,2832.00
2022-10-17T08:11:13.896Z,2656.00
2022-10-17T08:12:14.513Z,2792.00
2022-10-17T08:13:14.454Z,2684.00
2022-10-17T08:14:14.725Z,2804.00
2022-10-17T08:15:14.982Z,2876.00
2022-10-17T08:16:15.239Z,3020.00
2022-10-17T08:17:15.534Z,3276.00
2022-10-17T08:18:15.827Z,3524.00
2022-10-17T08:19:16.141Z,3672.00
2022-10-17T08:20:16.408Z,3720.00
2022-10-17T08:21:16.676Z,3776.00
2022-10-17T08:22:16.981Z,3800.00
2022-10-17T08:23:17.266Z,3820.00
2022-10-17T08:24:17.542Z,3856.00
2022-10-17T08:25:18.750Z,3888.00
2022-10-17T08:26:18.110Z,3896.00
2022-10-17T08:27:18.401Z,3888.00
2022-10-17T08:28:18.653Z,3740.00
2022-10-17T08:29:18.936Z,3772.00
2022-10-17T08:30:19.212Z,3832.00
2022-10-17T08:31:19.499Z,3764.00
2022-10-17T08:32:19.796Z,3660.00
2022-10-17T08:33:20.068Z,3496.00
2022-10-17T08:34:20.362Z,3360.00
2022-10-17T08:35:20.634Z,3404.00
2022-10-17T08:36:20.914Z,3608.00
2022-10-17T08:37:21.236Z,3544.00
2022-10-17T08:38:23.299Z,3296.00
2022-10-17T08:39:21.835Z,3020.00
2022-10-17T08:40:22.126Z,2868.00
2022-10-17T08:41:22.456Z,2744.00
2022-10-17T08:42:22.756Z,2632.00
2022-10-17T08:43:23.025Z,2500.00
2022-10-17T08:44:23.306Z,2444.00
2022-10-17T08:45:23.617Z,2420.00
2022-10-17T08:46:23.892Z,2384.00
2022-10-17T08:47:24.190Z,2340.00
2022-10-17T08:48:24.471Z,2312.00
2022-10-17T08:49:25.479Z,2284.00
2022-10-17T08:50:25.077Z,2252.00
2022-10-17T08:51:25.350Z,2224.00
2022-10-17T08:52:25.654Z,2228.00
2022-10-17T08:53:25.921Z,2244.00
2022-10-17T08:54:26.200Z,2244.00
2022-10-17T08:55:26.474Z,2248.00
2022-10-17T08:57:28.450Z,2260.00
2022-10-17T08:58:27.322Z,2268.00
2022-10-17T08:59:27.594Z,2248.00
2022-10-17T09:00:27.900Z,2264.00
2022-10-17T09:01:28.185Z,2284.00
2022-10-17T09:02:28.558Z,2300.00
2022-10-17T09:03:28.864Z,2368.00
2022-10-17T09:04:29.147Z,2192.00
2022-10-17T09:05:29.306Z,2296.00
2022-10-17T09:06:29.635Z,2180.00
2022-10-17T09:07:30.195Z,2160.00
2022-10-17T09:08:30.216Z,2168.00
2022-10-17T09:09:30.508Z,2300.00
2022-10-17T09:10:31.542Z,2312.00
2022-10-17T09:11:31.041Z,2324.00
2022-10-17T09:12:31.744Z,2308.00
2022-10-17T09:13:31.637Z,2288.00
2022-10-17T09:14:31.856Z,2284.00
2022-10-17T09:15:32.149Z,2268.00
2022-10-17T09:16:32.455Z,2288.00
2022-10-17T09:17:32.971Z,2332.00
2022-10-17T09:18:33.002Z,2312.00
2022-10-17T09:19:33.287Z,2340.00
2022-10-17T09:20:33.579Z,2336.00
2022-10-17T09:21:33.869Z,2340.00
2022-10-17T09:22:34.150Z,2340.00
2022-10-17T09:23:36.147Z,2332.00
2022-10-17T09:24:34.733Z,2324.00
2022-10-17T09:25:35.022Z,2296.00
2022-10-17T09:26:35.314Z,2268.00
2022-10-17T09:27:35.592Z,2264.00
2022-10-17T09:28:35.959Z,2252.00
2022-10-17T09:29:40.214Z,2236.00
2022-10-17T09:30:45.188Z,2216.00
2022-10-17T09:31:37.664Z,2212.00
2022-10-17T09:32:36.884Z,2200.00
2022-10-17T09:33:53.348Z,2188.00
2022-10-17T09:34:38.402Z,2200.00
2022-10-17T09:35:37.763Z,2196.00
2022-10-17T09:36:38.047Z,2200.00
2022-10-17T09:37:38.329Z,2204.00
2022-10-17T09:38:38.596Z,2224.00
2022-10-17T09:39:38.869Z,2244.00
2022-10-17T09:40:39.147Z,2256.00
2022-10-17T09:41:47.367Z,2276.00
2022-10-17T09:42:40.699Z,2296.00
2022-10-17T09:43:39.887Z,2324.00
2022-10-17T09:44:40.156Z,2360.00
2022-10-17T09:45:40.452Z,2424.00
2022-10-17T09:46:40.749Z,2468.00
2022-10-17T09:47:41.042Z,2536.00
2022-10-17T09:48:41.422Z,2596.00
2022-10-17T09:49:41.632Z,2660.00
2022-10-17T09:50:41.790Z,2712.00
2022-10-17T09:51:42.110Z,2756.00
2022-10-17T09:52:42.354Z,2772.00
2022-10-17T09:53:42.618Z,2756.00
2022-10-17T09:54:42.894Z,2736.00
2022-10-17T09:55:43.164Z,2680.00
2022-10-17T09:56:43.486Z,2620.00
2022-10-17T09:57:43.792Z,2560.00
2022-10-17T09:58:44.078Z,2476.00
2022-10-17T09:59:44.350Z,2480.00
2022-10-17T10:00:47.150Z,2492.00
2022-10-17T10:01:44.954Z,2496.00
2022-10-17T10:02:45.227Z,2516.00
2022-10-17T10:03:45.526Z,2536.00
2022-10-17T10:05:03.267Z,2560.00
2022-10-17T10:05:47.139Z,2568.00
2022-10-17T10:06:46.317Z,2564.00
2022-10-17T10:07:46.506Z,2604.00
2022-10-17T10:08:47.540Z,2612.00
2022-10-17T10:09:47.111Z,2592.00
2022-10-17T10:10:47.402Z,2560.00
2022-10-17T10:11:47.731Z,2528.00
2022-10-17T10:12:48.019Z,2488.00
2022-10-17T10:13:48.305Z,2440.00
2022-10-17T10:14:50.456Z,2408.00
2022-10-17T10:15:48.911Z,2408.00
2022-10-17T10:16:49.215Z,2412.00
2022-10-17T10:17:49.506Z,2432.00
2022-10-17T10:18:50.982Z,2440.00
2022-10-17T10:19:50.038Z,2444.00
2022-10-17T10:20:50.333Z,2464.00
2022-10-17T10:21:50.628Z,2496.00
2022-10-17T10:22:50.897Z,2520.00
2022-10-17T10:23:51.246Z,2540.00
2022-10-17T10:24:51.548Z,2576.00
2022-10-17T10:25:51.826Z,2572.00
2022-10-17T10:26:52.129Z,2608.00
2022-10-17T10:27:52.416Z,2612.00
2022-10-17T10:28:52.758Z,2592.00
2022-10-17T10:29:52.997Z,2528.00
2022-10-17T10:30:53.297Z,2424.00
2022-10-17T10:31:53.664Z,2388.00
2022-10-17T10:32:53.827Z,2368.00
2022-10-17T10:33:56.848Z,2316.00
2022-10-17T10:34:54.377Z,2296.00
2022-10-17T10:35:54.683Z,2312.00
2022-10-17T10:36:54.976Z,2340.00
2022-10-17T10:37:55.267Z,2360.00
2022-10-17T10:38:55.546Z,2352.00
2022-10-17T10:39:55.856Z,2328.00
2022-10-17T10:40:56.164Z,2308.00
2022-10-17T10:41:56.438Z,2236.00
2022-10-17T10:42:59.227Z,2004.00
2022-10-17T10:43:56.972Z,1968.00
2022-10-17T10:44:57.290Z,2020.00
2022-10-17T10:45:57.602Z,2060.00
2022-10-17T10:46:57.903Z,2160.00
2022-10-17T10:47:58.181Z,2356.00
2022-10-17T10:48:58.442Z,2632.00
2022-10-17T10:49:58.735Z,2976.00
2022-10-17T10:50:59.059Z,3280.00
2022-10-17T10:51:59.235Z,3516.00
2022-10-17T10:52:59.530Z,3704.00
2022-10-17T10:53:59.859Z,3800.00
2022-10-17T10:55:00.153Z,3896.00
2022-10-17T10:56:00.497Z,4024.00
2022-10-17T10:57:00.750Z,4128.00
2022-10-17T10:58:01.022Z,4204.00
2022-10-17T10:59:01.379Z,4312.00
2022-10-17T11:00:01.669Z,4472.00
2022-10-17T11:01:02.006Z,4636.00
2022-10-17T11:02:02.236Z,4844.00
2022-10-17T11:03:02.506Z,4964.00
2022-10-17T11:04:02.777Z,5064.00
2022-10-17T11:05:03.096Z,5060.00
2022-10-17T11:06:03.578Z,4952.00
2022-10-17T11:07:03.782Z,4864.00
2022-10-17T11:08:04.076Z,4744.00
2022-10-17T11:09:04.391Z,4648.00
2022-10-17T11:10:04.670Z,4504.00
2022-10-17T11:11:04.977Z,4396.00
2022-10-17T11:12:05.254Z,4276.00
2022-10-17T11:13:05.557Z,4200.00
2022-10-17T11:14:05.869Z,4116.00
2022-10-17T11:15:06.146Z,4068.00
2022-10-17T11:16:06.413Z,4000.00
2022-10-17T11:17:06.698Z,3912.00
2022-10-17T11:18:06.959Z,3864.00
2022-10-17T11:19:07.265Z,3792.00
2022-10-17T11:20:07.673Z,3720.00
2022-10-17T11:21:07.850Z,3636.00
2022-10-17T11:22:08.158Z,3520.00
2022-10-17T11:23:08.476Z,3436.00
2022-10-17T11:24:09.267Z,3348.00
2022-10-17T11:25:08.982Z,3256.00
2022-10-17T11:26:09.316Z,3156.00
2022-10-17T11:27:09.633Z,3056.00
2022-10-17T11:28:10.022Z,2976.00
2022-10-17T11:29:10.360Z,2904.00
2022-10-17T11:30:10.513Z,2816.00
2022-10-17T11:31:10.805Z,2756.00
2022-10-17T11:32:11.115Z,2704.00
2022-10-17T11:33:11.384Z,2652.00
2022-10-17T11:34:11.657Z,2592.00
2022-10-17T11:35:11.948Z,2540.00
2022-10-17T11:36:12.249Z,2504.00
2022-10-17T11:37:12.543Z,2484.00
2022-10-17T11:38:12.959Z,2448.00
2022-10-17T11:39:13.056Z,2432.00
2022-10-17T11:40:13.330Z,2404.00
2022-10-17T11:41:16.541Z,2392.00
2022-10-17T11:42:13.926Z,2356.00
2022-10-17T11:43:14.213Z,2400.00
2022-10-17T11:44:14.668Z,2396.00
2022-10-17T11:45:17.150Z,2416.00
2022-10-17T11:46:15.093Z,2420.00
2022-10-17T11:47:16.172Z,2420.00
2022-10-17T11:48:15.779Z,2440.00
2022-10-17T11:49:20.036Z,2420.00
2022-10-17T11:52:26.963Z,2352.00
2022-10-17T11:53:18.124Z,2332.00
2022-10-17T11:54:17.455Z,2328.00
2022-10-17T11:55:18.470Z,2324.00
2022-10-17T11:56:18.083Z,2328.00
2022-10-17T11:57:18.723Z,2336.00
2022-10-17T11:58:18.995Z,2352.00
2022-10-17T11:59:19.296Z,2348.00
2022-10-17T12:03:02.557Z,2388.00
2022-10-17T12:04:03.615Z,2388.00
2022-10-17T12:05:02.846Z,2380.00
2022-10-17T12:06:03.076Z,2368.00
2022-10-17T12:07:03.575Z,2372.00
2022-10-17T12:08:04.056Z,2368.00
2022-10-17T12:09:04.293Z,2388.00
2022-10-17T12:10:04.315Z,2376.00
2022-10-17T12:11:04.647Z,2400.00
2022-10-17T12:12:05.002Z,2444.00
2022-10-17T12:13:05.177Z,2476.00
2022-10-17T12:14:06.287Z,2516.00
2022-10-17T12:15:06.431Z,2560.00
2022-10-17T12:16:06.232Z,2580.00
2022-10-17T12:17:06.215Z,2588.00
2022-10-17T12:18:06.654Z,2628.00
2022-10-17T12:19:06.885Z,2652.00
2022-10-17T12:20:07.205Z,2660.00
2022-10-17T12:21:07.722Z,2680.00
2022-10-17T12:22:08.167Z,2680.00
2022-10-17T12:23:08.195Z,2696.00
2022-10-17T12:24:08.415Z,2716.00
2022-10-17T12:25:08.733Z,2716.00
2022-10-17T12:26:09.189Z,2680.00
2022-10-17T12:27:09.338Z,2680.00
2022-10-17T12:28:09.597Z,2692.00
2022-10-17T12:29:09.851Z,2700.00
2022-10-17T12:30:10.189Z,2720.00
2022-10-17T12:31:10.410Z,2760.00
2022-10-17T12:32:10.859Z,2840.00
2022-10-17T12:33:11.100Z,2940.00
2022-10-17T12:34:11.332Z,3044.00
2022-10-17T12:35:13.912Z,3124.00
2022-10-17T12:36:11.912Z,3324.00
2022-10-17T12:37:12.217Z,3448.00
2022-10-17T12:38:12.560Z,3536.00
2022-10-17T12:39:12.754Z,3604.00
2022-10-17T12:40:13.116Z,3612.00
2022-10-17T12:41:13.436Z,3544.00
2022-10-17T12:42:13.943Z,3424.00
2022-10-17T12:43:15.055Z,3316.00
2022-10-17T12:44:14.843Z,3208.00
2022-10-17T12:45:14.870Z,3100.00
2022-10-17T12:46:15.518Z,2992.00
2022-10-17T12:47:15.421Z,2892.00
2022-10-17T12:48:16.183Z,2832.00